sensor_id;sensor_type;location;lat;lon;timestamp;P1;durP1;ratioP1;P2;durP2;ratioP2
56493;SDS011;42392;42.648;27.652;2024-01-30T00:01:52;23.33;;;10.82;;
56493;SDS011;42392;42.648;27.652;2024-01-30T00:03:54;17.25;;;8.10;;
56493;SDS011;42392;42.648;27.652;2024-01-30T00:05:56;22.08;;;10.23;;
56493;SDS011;42392;42.648;27.652;2024-01-30T00:08:00;17.63;;;7.25;;
56493;SDS011;42392;42.648;27.652;2024-01-30T00:10:02;18.92;;;8.75;;
56493;SDS011;42392;42.648;27.652;2024-01-30T00:12:05;19.85;;;9.30;;
56493;SDS011;42392;42.648;27.652;2024-01-30T00:14:10;18.52;;;9.02;;
56493;SDS011;42392;42.648;27.652;2024-01-30T00:16:24;17.58;;;7.82;;
56493;SDS011;42392;42.648;27.652;2024-01-30T00:18:27;22.40;;;9.43;;
56493;SDS011;42392;42.648;27.652;2024-01-30T00:20:28;21.52;;;8.60;;
56493;SDS011;42392;42.648;27.652;2024-01-30T00:22:31;20.25;;;9.18;;
56493;SDS011;42392;42.648;27.652;2024-01-30T00:24:33;19.67;;;9.18;;
56493;SDS011;42392;42.648;27.652;2024-01-30T00:26:35;19.67;;;8.15;;
56493;SDS011;42392;42.648;27.652;2024-01-30T00:28:38;21.60;;;9.73;;
56493;SDS011;42392;42.648;27.652;2024-01-30T00:30:40;27.33;;;9.98;;
56493;SDS011;42392;42.648;27.652;2024-01-30T00:32:42;20.15;;;8.10;;
56493;SDS011;42392;42.648;27.652;2024-01-30T00:34:44;19.42;;;10.45;;
56493;SDS011;42392;42.648;27.652;2024-01-30T00:36:47;22.40;;;10.15;;
56493;SDS011;42392;42.648;27.652;2024-01-30T00:38:49;17.13;;;7.13;;
56493;SDS011;42392;42.648;27.652;2024-01-30T00:40:51;25.42;;;11.23;;
56493;SDS011;42392;42.648;27.652;2024-01-30T00:42:53;24.75;;;11.07;;
56493;SDS011;42392;42.648;27.652;2024-01-30T00:44:55;23.38;;;10.73;;
56493;SDS011;42392;42.648;27.652;2024-01-30T00:46:57;21.98;;;9.30;;
56493;SDS011;42392;42.648;27.652;2024-01-30T00:48:59;25.17;;;10.65;;
56493;SDS011;42392;42.648;27.652;2024-01-30T00:51:01;25.17;;;10.98;;
56493;SDS011;42392;42.648;27.652;2024-01-30T00:53:04;21.23;;;9.98;;
56493;SDS011;42392;42.648;27.652;2024-01-30T00:55:06;20.05;;;9.75;;
56493;SDS011;42392;42.648;27.652;2024-01-30T00:57:08;27.77;;;11.15;;
56493;SDS011;42392;42.648;27.652;2024-01-30T00:59:11;22.00;;;10.35;;
56493;SDS011;42392;42.648;27.652;2024-01-30T01:01:13;27.25;;;11.60;;
56493;SDS011;42392;42.648;27.652;2024-01-30T01:03:16;24.92;;;11.43;;
56493;SDS011;42392;42.648;27.652;2024-01-30T01:05:18;23.27;;;9.30;;
56493;SDS011;42392;42.648;27.652;2024-01-30T01:07:21;26.90;;;13.48;;
56493;SDS011;42392;42.648;27.652;2024-01-30T01:09:23;31.90;;;14.20;;
56493;SDS011;42392;42.648;27.652;2024-01-30T01:11:25;28.52;;;12.73;;
56493;SDS011;42392;42.648;27.652;2024-01-30T01:13:27;29.98;;;12.05;;
56493;SDS011;42392;42.648;27.652;2024-01-30T01:15:29;26.10;;;10.35;;
56493;SDS011;42392;42.648;27.652;2024-01-30T01:17:31;27.02;;;11.93;;
56493;SDS011;42392;42.648;27.652;2024-01-30T01:19:33;28.63;;;12.57;;
56493;SDS011;42392;42.648;27.652;2024-01-30T01:21:35;25.52;;;12.25;;
56493;SDS011;42392;42.648;27.652;2024-01-30T01:23:37;23.95;;;11.45;;
56493;SDS011;42392;42.648;27.652;2024-01-30T01:25:40;31.80;;;12.70;;
56493;SDS011;42392;42.648;27.652;2024-01-30T01:27:42;25.73;;;11.57;;
56493;SDS011;42392;42.648;27.652;2024-01-30T01:29:45;27.02;;;11.32;;
56493;SDS011;42392;42.648;27.652;2024-01-30T01:31:48;26.65;;;10.85;;
56493;SDS011;42392;42.648;27.652;2024-01-30T01:33:50;22.92;;;10.90;;
56493;SDS011;42392;42.648;27.652;2024-01-30T01:35:52;25.17;;;11.10;;
56493;SDS011;42392;42.648;27.652;2024-01-30T01:37:54;23.45;;;10.30;;
56493;SDS011;42392;42.648;27.652;2024-01-30T01:39:56;21.75;;;10.35;;
56493;SDS011;42392;42.648;27.652;2024-01-30T01:41:58;19.85;;;10.07;;
56493;SDS011;42392;42.648;27.652;2024-01-30T01:44:01;22.17;;;10.20;;
56493;SDS011;42392;42.648;27.652;2024-01-30T01:46:04;28.90;;;12.50;;
56493;SDS011;42392;42.648;27.652;2024-01-30T01:48:07;21.60;;;10.27;;
56493;SDS011;42392;42.648;27.652;2024-01-30T01:50:10;32.92;;;14.90;;
56493;SDS011;42392;42.648;27.652;2024-01-30T01:52:13;26.08;;;12.02;;
56493;SDS011;42392;42.648;27.652;2024-01-30T01:54:15;27.88;;;13.35;;
56493;SDS011;42392;42.648;27.652;2024-01-30T01:56:17;22.08;;;10.73;;
56493;SDS011;42392;42.648;27.652;2024-01-30T01:58:19;28.77;;;13.02;;
56493;SDS011;42392;42.648;27.652;2024-01-30T02:00:22;24.80;;;10.95;;
56493;SDS011;42392;42.648;27.652;2024-01-30T02:02:24;22.15;;;9.88;;
56493;SDS011;42392;42.648;27.652;2024-01-30T02:04:26;25.80;;;12.00;;
56493;SDS011;42392;42.648;27.652;2024-01-30T02:06:28;28.40;;;12.93;;
56493;SDS011;42392;42.648;27.652;2024-01-30T02:08:30;25.35;;;10.07;;
56493;SDS011;42392;42.648;27.652;2024-01-30T02:10:34;27.35;;;12.63;;
56493;SDS011;42392;42.648;27.652;2024-01-30T02:12:36;22.50;;;10.48;;
56493;SDS011;42392;42.648;27.652;2024-01-30T02:14:48;24.00;;;10.82;;
56493;SDS011;42392;42.648;27.652;2024-01-30T02:16:51;22.08;;;11.25;;
56493;SDS011;42392;42.648;27.652;2024-01-30T02:18:53;22.48;;;10.88;;
56493;SDS011;42392;42.648;27.652;2024-01-30T02:20:56;28.63;;;13.02;;
56493;SDS011;42392;42.648;27.652;2024-01-30T02:23:02;27.08;;;12.20;;
56493;SDS011;42392;42.648;27.652;2024-01-30T02:25:05;27.30;;;12.98;;
56493;SDS011;42392;42.648;27.652;2024-01-30T02:27:08;26.35;;;11.68;;
56493;SDS011;42392;42.648;27.652;2024-01-30T02:29:10;25.25;;;11.98;;
56493;SDS011;42392;42.648;27.652;2024-01-30T02:31:12;24.25;;;11.13;;
56493;SDS011;42392;42.648;27.652;2024-01-30T02:33:14;23.73;;;9.57;;
56493;SDS011;42392;42.648;27.652;2024-01-30T02:35:16;23.95;;;11.27;;
56493;SDS011;42392;42.648;27.652;2024-01-30T02:37:18;27.63;;;11.77;;
56493;SDS011;42392;42.648;27.652;2024-01-30T02:39:20;26.67;;;12.88;;
56493;SDS011;42392;42.648;27.652;2024-01-30T02:41:22;26.58;;;12.68;;
56493;SDS011;42392;42.648;27.652;2024-01-30T02:43:24;29.80;;;13.05;;
56493;SDS011;42392;42.648;27.652;2024-01-30T02:45:26;26.95;;;11.88;;
56493;SDS011;42392;42.648;27.652;2024-01-30T02:47:29;25.70;;;12.10;;
56493;SDS011;42392;42.648;27.652;2024-01-30T02:49:31;23.10;;;10.48;;
56493;SDS011;42392;42.648;27.652;2024-01-30T02:51:33;25.67;;;12.30;;
56493;SDS011;42392;42.648;27.652;2024-01-30T02:53:35;27.42;;;12.18;;
56493;SDS011;42392;42.648;27.652;2024-01-30T02:55:37;27.63;;;12.40;;
56493;SDS011;42392;42.648;27.652;2024-01-30T02:57:39;25.85;;;13.05;;
56493;SDS011;42392;42.648;27.652;2024-01-30T02:59:41;26.25;;;12.77;;
56493;SDS011;42392;42.648;27.652;2024-01-30T03:01:43;24.23;;;11.95;;
56493;SDS011;42392;42.648;27.652;2024-01-30T03:03:46;24.92;;;12.35;;
56493;SDS011;42392;42.648;27.652;2024-01-30T03:05:48;28.65;;;13.18;;
56493;SDS011;42392;42.648;27.652;2024-01-30T03:07:50;29.35;;;11.80;;
56493;SDS011;42392;42.648;27.652;2024-01-30T03:09:52;25.13;;;10.93;;
56493;SDS011;42392;42.648;27.652;2024-01-30T03:11:57;23.80;;;11.23;;
56493;SDS011;42392;42.648;27.652;2024-01-30T03:13:59;27.95;;;12.80;;
56493;SDS011;42392;42.648;27.652;2024-01-30T03:16:01;27.25;;;11.52;;
56493;SDS011;42392;42.648;27.652;2024-01-30T03:18:03;28.55;;;11.88;;
56493;SDS011;42392;42.648;27.652;2024-01-30T03:20:05;22.58;;;11.35;;
56493;SDS011;42392;42.648;27.652;2024-01-30T03:22:08;28.35;;;12.73;;
56493;SDS011;42392;42.648;27.652;2024-01-30T03:24:10;30.35;;;13.30;;
56493;SDS011;42392;42.648;27.652;2024-01-30T03:26:12;28.38;;;13.13;;
56493;SDS011;42392;42.648;27.652;2024-01-30T03:28:16;25.38;;;11.15;;
56493;SDS011;42392;42.648;27.652;2024-01-30T03:30:18;24.55;;;11.70;;
56493;SDS011;42392;42.648;27.652;2024-01-30T03:32:20;24.70;;;11.77;;
56493;SDS011;42392;42.648;27.652;2024-01-30T03:34:22;24.08;;;11.30;;
56493;SDS011;42392;42.648;27.652;2024-01-30T03:36:24;28.15;;;11.73;;
56493;SDS011;42392;42.648;27.652;2024-01-30T03:38:26;23.95;;;10.98;;
56493;SDS011;42392;42.648;27.652;2024-01-30T03:40:28;22.67;;;10.07;;
56493;SDS011;42392;42.648;27.652;2024-01-30T03:42:30;25.10;;;11.63;;
56493;SDS011;42392;42.648;27.652;2024-01-30T03:44:32;26.13;;;11.75;;
56493;SDS011;42392;42.648;27.652;2024-01-30T03:46:34;24.67;;;11.32;;
56493;SDS011;42392;42.648;27.652;2024-01-30T03:48:36;25.45;;;11.80;;
56493;SDS011;42392;42.648;27.652;2024-01-30T03:50:38;26.25;;;11.50;;
56493;SDS011;42392;42.648;27.652;2024-01-30T03:52:40;27.48;;;11.85;;
56493;SDS011;42392;42.648;27.652;2024-01-30T03:54:42;21.15;;;10.10;;
56493;SDS011;42392;42.648;27.652;2024-01-30T03:56:44;19.63;;;10.13;;
56493;SDS011;42392;42.648;27.652;2024-01-30T03:58:46;22.73;;;10.95;;
56493;SDS011;42392;42.648;27.652;2024-01-30T04:00:48;26.00;;;12.52;;
56493;SDS011;42392;42.648;27.652;2024-01-30T04:02:50;22.80;;;11.65;;
56493;SDS011;42392;42.648;27.652;2024-01-30T04:04:52;28.52;;;12.07;;
56493;SDS011;42392;42.648;27.652;2024-01-30T04:06:55;25.17;;;11.60;;
56493;SDS011;42392;42.648;27.652;2024-01-30T04:08:57;23.30;;;10.55;;
56493;SDS011;42392;42.648;27.652;2024-01-30T04:11:02;27.85;;;11.85;;
56493;SDS011;42392;42.648;27.652;2024-01-30T04:13:07;24.52;;;11.07;;
56493;SDS011;42392;42.648;27.652;2024-01-30T04:17:15;26.83;;;12.10;;
56493;SDS011;42392;42.648;27.652;2024-01-30T04:19:17;25.98;;;11.70;;
56493;SDS011;42392;42.648;27.652;2024-01-30T04:21:20;24.95;;;12.02;;
56493;SDS011;42392;42.648;27.652;2024-01-30T04:23:23;26.40;;;12.35;;
56493;SDS011;42392;42.648;27.652;2024-01-30T04:25:25;25.13;;;11.00;;
56493;SDS011;42392;42.648;27.652;2024-01-30T04:27:27;35.55;;;15.68;;
56493;SDS011;42392;42.648;27.652;2024-01-30T04:29:29;25.65;;;12.45;;
56493;SDS011;42392;42.648;27.652;2024-01-30T04:31:31;22.25;;;11.15;;
56493;SDS011;42392;42.648;27.652;2024-01-30T04:33:33;26.40;;;11.77;;
56493;SDS011;42392;42.648;27.652;2024-01-30T04:35:35;22.55;;;9.85;;
56493;SDS011;42392;42.648;27.652;2024-01-30T04:37:37;20.38;;;9.38;;
56493;SDS011;42392;42.648;27.652;2024-01-30T04:39:39;25.02;;;12.98;;
56493;SDS011;42392;42.648;27.652;2024-01-30T04:41:42;23.50;;;10.27;;
56493;SDS011;42392;42.648;27.652;2024-01-30T04:43:44;23.60;;;10.98;;
56493;SDS011;42392;42.648;27.652;2024-01-30T04:45:46;25.08;;;11.02;;
56493;SDS011;42392;42.648;27.652;2024-01-30T04:47:48;25.00;;;11.38;;
56493;SDS011;42392;42.648;27.652;2024-01-30T04:49:51;33.58;;;13.32;;
56493;SDS011;42392;42.648;27.652;2024-01-30T04:51:53;29.58;;;12.75;;
56493;SDS011;42392;42.648;27.652;2024-01-30T04:53:55;23.05;;;10.18;;
56493;SDS011;42392;42.648;27.652;2024-01-30T04:55:57;30.75;;;12.68;;
56493;SDS011;42392;42.648;27.652;2024-01-30T04:57:59;20.00;;;10.70;;
56493;SDS011;42392;42.648;27.652;2024-01-30T05:00:01;21.50;;;9.93;;
56493;SDS011;42392;42.648;27.652;2024-01-30T05:02:04;24.30;;;10.65;;
56493;SDS011;42392;42.648;27.652;2024-01-30T05:04:09;20.63;;;11.13;;
56493;SDS011;42392;42.648;27.652;2024-01-30T05:06:26;26.45;;;12.32;;
56493;SDS011;42392;42.648;27.652;2024-01-30T05:08:29;25.60;;;12.80;;
56493;SDS011;42392;42.648;27.652;2024-01-30T05:10:31;25.92;;;12.30;;
56493;SDS011;42392;42.648;27.652;2024-01-30T05:12:33;26.80;;;12.15;;
56493;SDS011;42392;42.648;27.652;2024-01-30T05:14:35;23.58;;;11.52;;
56493;SDS011;42392;42.648;27.652;2024-01-30T05:16:37;20.92;;;10.55;;
56493;SDS011;42392;42.648;27.652;2024-01-30T05:18:39;21.38;;;10.32;;
56493;SDS011;42392;42.648;27.652;2024-01-30T05:20:42;25.83;;;11.95;;
56493;SDS011;42392;42.648;27.652;2024-01-30T05:22:44;30.92;;;12.52;;
56493;SDS011;42392;42.648;27.652;2024-01-30T05:24:46;23.98;;;11.90;;
56493;SDS011;42392;42.648;27.652;2024-01-30T05:26:48;20.35;;;10.00;;
56493;SDS011;42392;42.648;27.652;2024-01-30T05:28:52;30.27;;;13.90;;
56493;SDS011;42392;42.648;27.652;2024-01-30T05:30:54;27.27;;;12.98;;
56493;SDS011;42392;42.648;27.652;2024-01-30T05:32:57;26.90;;;11.60;;
56493;SDS011;42392;42.648;27.652;2024-01-30T05:34:59;24.60;;;10.88;;
56493;SDS011;42392;42.648;27.652;2024-01-30T05:37:01;26.15;;;13.20;;
56493;SDS011;42392;42.648;27.652;2024-01-30T05:39:03;22.50;;;10.65;;
56493;SDS011;42392;42.648;27.652;2024-01-30T05:43:11;30.25;;;13.70;;
56493;SDS011;42392;42.648;27.652;2024-01-30T05:45:13;24.70;;;12.13;;
56493;SDS011;42392;42.648;27.652;2024-01-30T05:47:16;26.52;;;11.80;;
56493;SDS011;42392;42.648;27.652;2024-01-30T05:49:18;24.90;;;12.43;;
56493;SDS011;42392;42.648;27.652;2024-01-30T05:51:20;23.60;;;9.98;;
56493;SDS011;42392;42.648;27.652;2024-01-30T05:53:22;28.45;;;12.95;;
56493;SDS011;42392;42.648;27.652;2024-01-30T05:55:24;22.30;;;10.60;;
56493;SDS011;42392;42.648;27.652;2024-01-30T05:57:26;23.90;;;11.55;;
56493;SDS011;42392;42.648;27.652;2024-01-30T05:59:28;26.52;;;11.95;;
56493;SDS011;42392;42.648;27.652;2024-01-30T06:01:30;25.83;;;11.88;;
56493;SDS011;42392;42.648;27.652;2024-01-30T06:03:32;26.63;;;11.90;;
56493;SDS011;42392;42.648;27.652;2024-01-30T06:05:34;28.98;;;13.35;;
56493;SDS011;42392;42.648;27.652;2024-01-30T06:07:36;22.58;;;10.02;;
56493;SDS011;42392;42.648;27.652;2024-01-30T06:09:39;23.33;;;11.15;;
56493;SDS011;42392;42.648;27.652;2024-01-30T06:11:42;27.27;;;12.73;;
56493;SDS011;42392;42.648;27.652;2024-01-30T06:13:44;28.05;;;12.52;;
56493;SDS011;42392;42.648;27.652;2024-01-30T06:15:46;26.52;;;11.35;;
56493;SDS011;42392;42.648;27.652;2024-01-30T06:17:48;23.55;;;11.40;;
56493;SDS011;42392;42.648;27.652;2024-01-30T06:19:50;29.02;;;12.57;;
56493;SDS011;42392;42.648;27.652;2024-01-30T06:21:52;33.85;;;14.75;;
56493;SDS011;42392;42.648;27.652;2024-01-30T06:23:54;32.05;;;13.00;;
56493;SDS011;42392;42.648;27.652;2024-01-30T06:25:56;23.98;;;10.93;;
56493;SDS011;42392;42.648;27.652;2024-01-30T06:27:58;25.45;;;12.82;;
56493;SDS011;42392;42.648;27.652;2024-01-30T06:30:00;26.15;;;12.00;;
56493;SDS011;42392;42.648;27.652;2024-01-30T06:32:03;22.15;;;12.00;;
56493;SDS011;42392;42.648;27.652;2024-01-30T06:34:05;30.48;;;14.55;;
56493;SDS011;42392;42.648;27.652;2024-01-30T06:36:07;25.55;;;11.25;;
56493;SDS011;42392;42.648;27.652;2024-01-30T06:38:09;23.75;;;11.45;;
56493;SDS011;42392;42.648;27.652;2024-01-30T06:40:11;26.17;;;12.50;;
56493;SDS011;42392;42.648;27.652;2024-01-30T06:42:14;38.67;;;18.85;;
56493;SDS011;42392;42.648;27.652;2024-01-30T06:44:16;37.35;;;18.00;;
56493;SDS011;42392;42.648;27.652;2024-01-30T06:46:18;22.50;;;12.13;;
56493;SDS011;42392;42.648;27.652;2024-01-30T06:48:20;22.52;;;10.07;;
56493;SDS011;42392;42.648;27.652;2024-01-30T06:50:22;22.67;;;10.52;;
56493;SDS011;42392;42.648;27.652;2024-01-30T06:52:24;19.77;;;9.48;;
56493;SDS011;42392;42.648;27.652;2024-01-30T06:54:26;24.23;;;10.93;;
56493;SDS011;42392;42.648;27.652;2024-01-30T06:56:29;24.17;;;12.32;;
56493;SDS011;42392;42.648;27.652;2024-01-30T06:58:31;27.05;;;12.60;;
56493;SDS011;42392;42.648;27.652;2024-01-30T07:00:33;31.08;;;13.48;;
56493;SDS011;42392;42.648;27.652;2024-01-30T07:02:35;30.60;;;15.30;;
56493;SDS011;42392;42.648;27.652;2024-01-30T07:04:38;32.28;;;13.45;;
56493;SDS011;42392;42.648;27.652;2024-01-30T07:06:47;39.65;;;18.63;;
56493;SDS011;42392;42.648;27.652;2024-01-30T07:08:49;29.58;;;14.05;;
56493;SDS011;42392;42.648;27.652;2024-01-30T07:10:51;28.15;;;12.23;;
56493;SDS011;42392;42.648;27.652;2024-01-30T07:13:01;20.48;;;8.77;;
56493;SDS011;42392;42.648;27.652;2024-01-30T07:15:03;20.67;;;10.30;;
56493;SDS011;42392;42.648;27.652;2024-01-30T07:17:09;19.35;;;8.80;;
56493;SDS011;42392;42.648;27.652;2024-01-30T07:19:11;21.20;;;10.55;;
56493;SDS011;42392;42.648;27.652;2024-01-30T07:21:13;20.02;;;9.32;;
56493;SDS011;42392;42.648;27.652;2024-01-30T07:23:16;19.15;;;8.52;;
56493;SDS011;42392;42.648;27.652;2024-01-30T07:25:19;18.77;;;9.95;;
56493;SDS011;42392;42.648;27.652;2024-01-30T07:27:21;23.33;;;12.00;;
56493;SDS011;42392;42.648;27.652;2024-01-30T07:29:23;23.13;;;11.25;;
56493;SDS011;42392;42.648;27.652;2024-01-30T07:31:25;27.75;;;12.85;;
56493;SDS011;42392;42.648;27.652;2024-01-30T07:33:29;31.67;;;14.00;;
56493;SDS011;42392;42.648;27.652;2024-01-30T07:35:31;22.40;;;11.45;;
56493;SDS011;42392;42.648;27.652;2024-01-30T07:37:33;23.25;;;11.23;;
56493;SDS011;42392;42.648;27.652;2024-01-30T07:39:36;29.55;;;12.27;;
56493;SDS011;42392;42.648;27.652;2024-01-30T07:41:38;26.75;;;12.38;;
56493;SDS011;42392;42.648;27.652;2024-01-30T07:43:40;23.77;;;10.45;;
56493;SDS011;42392;42.648;27.652;2024-01-30T07:45:42;20.48;;;10.07;;
56493;SDS011;42392;42.648;27.652;2024-01-30T07:47:44;25.10;;;12.60;;
56493;SDS011;42392;42.648;27.652;2024-01-30T07:49:46;20.48;;;9.05;;
56493;SDS011;42392;42.648;27.652;2024-01-30T07:51:49;22.50;;;12.15;;
56493;SDS011;42392;42.648;27.652;2024-01-30T07:53:51;24.27;;;11.90;;
56493;SDS011;42392;42.648;27.652;2024-01-30T07:55:53;27.15;;;11.50;;
56493;SDS011;42392;42.648;27.652;2024-01-30T07:57:55;21.95;;;9.93;;
56493;SDS011;42392;42.648;27.652;2024-01-30T07:59:57;24.17;;;10.55;;
56493;SDS011;42392;42.648;27.652;2024-01-30T08:02:00;21.90;;;9.55;;
56493;SDS011;42392;42.648;27.652;2024-01-30T08:04:02;19.77;;;9.35;;
56493;SDS011;42392;42.648;27.652;2024-01-30T08:06:04;25.48;;;9.48;;
56493;SDS011;42392;42.648;27.652;2024-01-30T08:08:08;20.35;;;8.73;;
56493;SDS011;42392;42.648;27.652;2024-01-30T08:10:11;25.20;;;9.20;;
56493;SDS011;42392;42.648;27.652;2024-01-30T08:12:14;26.63;;;10.40;;
56493;SDS011;42392;42.648;27.652;2024-01-30T08:14:17;22.70;;;10.55;;
56493;SDS011;42392;42.648;27.652;2024-01-30T08:16:19;27.23;;;11.82;;
56493;SDS011;42392;42.648;27.652;2024-01-30T08:18:22;24.60;;;10.65;;
56493;SDS011;42392;42.648;27.652;2024-01-30T08:20:24;20.75;;;10.35;;
56493;SDS011;42392;42.648;27.652;2024-01-30T08:22:26;24.60;;;11.90;;
56493;SDS011;42392;42.648;27.652;2024-01-30T08:24:29;21.25;;;10.32;;
56493;SDS011;42392;42.648;27.652;2024-01-30T08:26:31;32.22;;;15.55;;
56493;SDS011;42392;42.648;27.652;2024-01-30T08:28:34;24.77;;;10.80;;
56493;SDS011;42392;42.648;27.652;2024-01-30T08:30:36;23.25;;;10.85;;
56493;SDS011;42392;42.648;27.652;2024-01-30T08:32:40;23.52;;;10.77;;
56493;SDS011;42392;42.648;27.652;2024-01-30T08:34:42;21.40;;;9.00;;
56493;SDS011;42392;42.648;27.652;2024-01-30T08:36:44;21.30;;;10.35;;
56493;SDS011;42392;42.648;27.652;2024-01-30T08:38:47;21.23;;;9.57;;
56493;SDS011;42392;42.648;27.652;2024-01-30T08:40:49;16.98;;;6.53;;
56493;SDS011;42392;42.648;27.652;2024-01-30T08:42:51;24.58;;;10.32;;
56493;SDS011;42392;42.648;27.652;2024-01-30T08:44:53;24.90;;;10.20;;
56493;SDS011;42392;42.648;27.652;2024-01-30T08:46:55;36.30;;;13.90;;
56493;SDS011;42392;42.648;27.652;2024-01-30T08:49:00;29.67;;;13.25;;
56493;SDS011;42392;42.648;27.652;2024-01-30T08:51:05;28.95;;;13.43;;
56493;SDS011;42392;42.648;27.652;2024-01-30T08:53:09;25.50;;;10.48;;
56493;SDS011;42392;42.648;27.652;2024-01-30T08:55:11;26.55;;;11.60;;
56493;SDS011;42392;42.648;27.652;2024-01-30T08:57:13;22.50;;;9.98;;
56493;SDS011;42392;42.648;27.652;2024-01-30T08:59:16;17.85;;;7.22;;
56493;SDS011;42392;42.648;27.652;2024-01-30T09:01:18;34.28;;;15.98;;
56493;SDS011;42392;42.648;27.652;2024-01-30T09:03:20;16.88;;;7.63;;
56493;SDS011;42392;42.648;27.652;2024-01-30T09:05:22;18.33;;;8.52;;
56493;SDS011;42392;42.648;27.652;2024-01-30T09:07:24;17.80;;;8.75;;
56493;SDS011;42392;42.648;27.652;2024-01-30T09:09:26;18.88;;;8.73;;
56493;SDS011;42392;42.648;27.652;2024-01-30T09:11:28;13.77;;;7.05;;
56493;SDS011;42392;42.648;27.652;2024-01-30T09:13:30;15.27;;;7.00;;
56493;SDS011;42392;42.648;27.652;2024-01-30T09:15:32;20.40;;;8.43;;
56493;SDS011;42392;42.648;27.652;2024-01-30T09:17:34;14.23;;;6.10;;
56493;SDS011;42392;42.648;27.652;2024-01-30T09:19:36;14.57;;;6.75;;
56493;SDS011;42392;42.648;27.652;2024-01-30T09:21:38;14.85;;;6.82;;
56493;SDS011;42392;42.648;27.652;2024-01-30T09:23:40;15.43;;;6.85;;
56493;SDS011;42392;42.648;27.652;2024-01-30T09:25:42;15.40;;;7.05;;
56493;SDS011;42392;42.648;27.652;2024-01-30T09:27:44;15.10;;;6.50;;
56493;SDS011;42392;42.648;27.652;2024-01-30T09:29:46;13.48;;;6.05;;
56493;SDS011;42392;42.648;27.652;2024-01-30T09:31:48;15.23;;;7.35;;
56493;SDS011;42392;42.648;27.652;2024-01-30T09:33:50;15.50;;;7.10;;
56493;SDS011;42392;42.648;27.652;2024-01-30T09:35:55;14.73;;;7.00;;
56493;SDS011;42392;42.648;27.652;2024-01-30T09:37:57;17.05;;;7.32;;
56493;SDS011;42392;42.648;27.652;2024-01-30T09:39:59;20.45;;;9.13;;
56493;SDS011;42392;42.648;27.652;2024-01-30T09:44:13;16.67;;;7.30;;
56493;SDS011;42392;42.648;27.652;2024-01-30T09:46:19;16.90;;;6.80;;
56493;SDS011;42392;42.648;27.652;2024-01-30T09:48:23;21.17;;;8.50;;
56493;SDS011;42392;42.648;27.652;2024-01-30T09:50:25;16.27;;;7.97;;
56493;SDS011;42392;42.648;27.652;2024-01-30T09:52:28;14.30;;;6.78;;
56493;SDS011;42392;42.648;27.652;2024-01-30T09:54:30;16.00;;;6.75;;
56493;SDS011;42392;42.648;27.652;2024-01-30T09:56:37;11.73;;;4.90;;
56493;SDS011;42392;42.648;27.652;2024-01-30T09:58:39;17.35;;;7.30;;
56493;SDS011;42392;42.648;27.652;2024-01-30T10:00:41;16.40;;;8.40;;
56493;SDS011;42392;42.648;27.652;2024-01-30T10:02:44;16.63;;;7.78;;
56493;SDS011;42392;42.648;27.652;2024-01-30T10:04:50;14.27;;;5.75;;
56493;SDS011;42392;42.648;27.652;2024-01-30T10:06:53;14.15;;;6.03;;
56493;SDS011;42392;42.648;27.652;2024-01-30T10:08:55;13.32;;;5.57;;
56493;SDS011;42392;42.648;27.652;2024-01-30T10:10:58;12.23;;;5.53;;
56493;SDS011;42392;42.648;27.652;2024-01-30T10:13:00;13.18;;;5.85;;
56493;SDS011;42392;42.648;27.652;2024-01-30T10:15:06;15.75;;;7.15;;
56493;SDS011;42392;42.648;27.652;2024-01-30T10:17:10;15.30;;;6.55;;
56493;SDS011;42392;42.648;27.652;2024-01-30T10:19:27;18.70;;;6.43;;
56493;SDS011;42392;42.648;27.652;2024-01-30T10:21:30;19.33;;;8.75;;
56493;SDS011;42392;42.648;27.652;2024-01-30T10:23:32;22.10;;;10.32;;
56493;SDS011;42392;42.648;27.652;2024-01-30T10:25:36;19.25;;;7.07;;
56493;SDS011;42392;42.648;27.652;2024-01-30T10:27:39;14.55;;;7.70;;
56493;SDS011;42392;42.648;27.652;2024-01-30T10:29:42;12.80;;;6.22;;
56493;SDS011;42392;42.648;27.652;2024-01-30T10:31:44;16.80;;;7.88;;
56493;SDS011;42392;42.648;27.652;2024-01-30T10:33:46;13.73;;;6.32;;
56493;SDS011;42392;42.648;27.652;2024-01-30T10:35:48;18.92;;;9.40;;
56493;SDS011;42392;42.648;27.652;2024-01-30T10:37:52;13.38;;;5.28;;
56493;SDS011;42392;42.648;27.652;2024-01-30T10:39:54;13.05;;;5.53;;
56493;SDS011;42392;42.648;27.652;2024-01-30T10:41:58;10.73;;;5.18;;
56493;SDS011;42392;42.648;27.652;2024-01-30T10:44:11;13.48;;;6.43;;
56493;SDS011;42392;42.648;27.652;2024-01-30T10:46:18;15.68;;;5.03;;
56493;SDS011;42392;42.648;27.652;2024-01-30T10:48:23;13.27;;;5.38;;
56493;SDS011;42392;42.648;27.652;2024-01-30T10:50:29;23.42;;;8.93;;
56493;SDS011;42392;42.648;27.652;2024-01-30T10:52:32;17.15;;;8.13;;
56493;SDS011;42392;42.648;27.652;2024-01-30T10:54:34;20.75;;;8.18;;
56493;SDS011;42392;42.648;27.652;2024-01-30T10:56:37;14.98;;;7.18;;
56493;SDS011;42392;42.648;27.652;2024-01-30T10:58:40;20.45;;;7.72;;
56493;SDS011;42392;42.648;27.652;2024-01-30T11:00:42;18.70;;;8.80;;
56493;SDS011;42392;42.648;27.652;2024-01-30T11:02:45;18.13;;;8.32;;
56493;SDS011;42392;42.648;27.652;2024-01-30T11:04:48;21.23;;;10.55;;
56493;SDS011;42392;42.648;27.652;2024-01-30T11:06:51;21.33;;;10.45;;
56493;SDS011;42392;42.648;27.652;2024-01-30T11:09:00;25.85;;;11.45;;
56493;SDS011;42392;42.648;27.652;2024-01-30T11:11:11;17.58;;;8.20;;
56493;SDS011;42392;42.648;27.652;2024-01-30T11:13:18;18.40;;;7.57;;
56493;SDS011;42392;42.648;27.652;2024-01-30T11:15:21;15.10;;;7.55;;
56493;SDS011;42392;42.648;27.652;2024-01-30T11:17:27;21.53;;;10.50;;
56493;SDS011;42392;42.648;27.652;2024-01-30T11:19:30;14.73;;;7.28;;
56493;SDS011;42392;42.648;27.652;2024-01-30T11:21:33;16.23;;;6.80;;
56493;SDS011;42392;42.648;27.652;2024-01-30T11:23:43;17.33;;;8.13;;
56493;SDS011;42392;42.648;27.652;2024-01-30T11:25:45;16.42;;;7.88;;
56493;SDS011;42392;42.648;27.652;2024-01-30T11:27:49;17.38;;;8.00;;
56493;SDS011;42392;42.648;27.652;2024-01-30T11:29:53;11.00;;;4.97;;
56493;SDS011;42392;42.648;27.652;2024-01-30T11:31:56;17.95;;;9.45;;
56493;SDS011;42392;42.648;27.652;2024-01-30T11:34:00;10.23;;;3.97;;
56493;SDS011;42392;42.648;27.652;2024-01-30T11:36:02;10.05;;;4.53;;
56493;SDS011;42392;42.648;27.652;2024-01-30T11:38:05;12.07;;;4.82;;
56493;SDS011;42392;42.648;27.652;2024-01-30T11:40:09;12.13;;;4.57;;
56493;SDS011;42392;42.648;27.652;2024-01-30T11:42:12;11.45;;;5.30;;
56493;SDS011;42392;42.648;27.652;2024-01-30T11:44:15;10.30;;;4.47;;
56493;SDS011;42392;42.648;27.652;2024-01-30T11:46:17;12.20;;;7.22;;
56493;SDS011;42392;42.648;27.652;2024-01-30T11:48:19;13.48;;;7.25;;
56493;SDS011;42392;42.648;27.652;2024-01-30T11:50:21;11.05;;;5.45;;
56493;SDS011;42392;42.648;27.652;2024-01-30T11:52:24;11.88;;;5.30;;
56493;SDS011;42392;42.648;27.652;2024-01-30T11:54:26;38.70;;;21.83;;
56493;SDS011;42392;42.648;27.652;2024-01-30T11:56:28;19.05;;;10.45;;
56493;SDS011;42392;42.648;27.652;2024-01-30T11:58:30;32.47;;;21.27;;